Time;durP1;ratioP1;P1;durP2;ratioP2;P2;SDS_P1;SDS_P2;PMS_P1;PMS_P2;Temp;Humidity;BMP_temperature;BMP_pressure;BME280_temperature;BME280_humidity;BME280_pressure;Samples;Min_cycle;Max_cycle;Signal;HPM_P1;HPM_P2
2021/05/27 00:01:42;;;;;;;7.62;5.67;;;;;;;22.56;58.51;99964.94;1833777;77;21099;-69
2021/05/27 00:04:09;;;;;;;6.33;5.70;;;;;;;22.54;58.56;99965.20;1839452;77;21027;-71
2021/05/27 00:06:35;;;;;;;11.75;6.70;;;;;;;22.53;58.61;99962.19;1836353;77;22260;-70
2021/05/27 00:09:04;;;;;;;9.20;5.70;;;;;;;22.53;58.67;99962.73;1797330;79;21103;-69
2021/05/27 00:11:31;;;;;;;6.20;5.58;;;;;;;22.52;58.73;99959.20;1845826;77;21563;-70
2021/05/27 00:13:59;;;;;;;12.03;6.08;;;;;;;22.51;58.74;99954.84;1847665;77;21087;-70
2021/05/27 00:16:26;;;;;;;27.17;23.25;;;;;;;22.50;58.80;99963.20;1839298;77;21004;-69
2021/05/27 00:18:54;;;;;;;22.13;17.80;;;;;;;22.49;58.91;99953.45;1840735;77;21063;-69
2021/05/27 00:21:21;;;;;;;19.35;15.65;;;;;;;22.48;59.00;99950.44;1839963;77;21603;-70
2021/05/27 00:23:47;;;;;;;17.52;13.95;;;;;;;22.48;59.10;99949.89;1843993;77;21073;-69
2021/05/27 00:26:14;;;;;;;17.62;12.95;;;;;;;22.47;59.21;99952.88;1841981;77;21100;-70
2021/05/27 00:28:41;;;;;;;13.08;11.68;;;;;;;22.48;59.33;99952.61;1769385;80;21093;-70
2021/05/27 00:31:10;;;;;;;12.28;10.85;;;;;;;22.47;59.45;99949.63;1842004;77;21055;-71
2021/05/27 00:33:37;;;;;;;14.13;11.25;;;;;;;22.47;59.62;99945.56;1844940;77;21594;-70
2021/05/27 00:36:04;;;;;;;11.20;9.33;;;;;;;22.45;59.75;99943.62;1838181;77;21071;-69
2021/05/27 00:38:31;;;;;;;9.75;8.78;;;;;;;22.46;59.87;99940.38;1839446;77;21091;-71
2021/05/27 00:40:57;;;;;;;9.75;8.75;;;;;;;22.46;59.90;99939.84;1843745;77;21035;-72
2021/05/27 00:43:24;;;;;;;10.60;8.93;;;;;;;22.47;59.94;99935.28;1831307;77;21083;-70
2021/05/27 00:45:50;;;;;;;8.93;8.13;;;;;;;22.46;59.99;99940.38;1812670;77;21547;-70
2021/05/27 00:51:03;;;;;;;9.40;7.83;;;;;;;22.46;60.04;99937.14;1771161;80;21119;-70
2021/05/27 00:53:30;;;;;;;8.33;7.53;;;;;;;22.44;60.08;99933.85;1806919;78;21016;-71
2021/05/27 00:55:59;;;;;;;8.83;8.00;;;;;;;22.44;60.08;99936.56;1778694;78;21067;-74
2021/05/27 00:58:25;;;;;;;8.95;7.25;;;;;;;22.44;60.12;99937.91;1800356;78;21147;-71
2021/05/27 01:00:51;;;;;;;15.00;7.85;;;;;;;22.43;60.16;99936.28;1804258;78;21554;-71
2021/05/27 01:03:19;;;;;;;7.87;7.08;;;;;;;22.45;60.21;99941.47;1805057;77;21064;-70
2021/05/27 01:05:46;;;;;;;10.23;7.53;;;;;;;22.44;60.22;99939.80;1813636;78;21067;-70
2021/05/27 01:08:14;;;;;;;7.70;6.90;;;;;;;22.44;60.22;99938.45;1806318;78;21111;-70
2021/05/27 01:10:43;;;;;;;7.83;7.03;;;;;;;22.42;60.26;99937.33;1809287;78;21468;-71
2021/05/27 01:13:09;;;;;;;10.88;6.92;;;;;;;22.43;60.29;99940.34;1813260;78;21102;-70
2021/05/27 01:15:39;;;;;;;10.38;7.37;;;;;;;22.42;60.31;99938.69;1767973;80;21583;-70
2021/05/27 01:18:14;;;;;;;9.08;7.05;;;;;;;22.41;60.33;99942.98;1810888;77;21039;-70
2021/05/27 01:20:44;;;;;;;7.65;6.90;;;;;;;22.40;60.34;99942.17;1768808;80;21547;-69
2021/05/27 01:23:11;;;;;;;12.18;8.85;;;;;;;22.38;60.36;99939.70;1772179;79;21087;-70
2021/05/27 01:25:44;;;;;;;8.80;7.75;;;;;;;22.37;60.38;99943.48;1747478;80;21074;-69
2021/05/27 01:28:10;;;;;;;12.50;7.90;;;;;;;22.36;60.42;99936.95;1784488;78;21043;-70
2021/05/27 01:30:37;;;;;;;9.38;8.25;;;;;;;22.36;60.40;99941.83;1815390;78;21047;-70
2021/05/27 01:33:05;;;;;;;12.60;9.05;;;;;;;22.35;60.44;99943.45;1775150;78;21687;-69
2021/05/27 01:35:33;;;;;;;13.38;8.58;;;;;;;22.34;60.46;99934.48;1781439;78;21114;-69
2021/05/27 01:37:59;;;;;;;10.82;9.00;;;;;;;22.34;60.46;99938.54;1805976;77;21039;-67
2021/05/27 01:40:26;;;;;;;11.85;8.55;;;;;;;22.33;60.46;99932.04;1811494;78;21123;-69
2021/05/27 01:42:56;;;;;;;11.85;8.90;;;;;;;22.33;60.48;99933.39;1814791;78;21126;-70
2021/05/27 01:45:24;;;;;;;14.25;11.15;;;;;;;22.33;60.48;99934.75;1827906;77;21121;-71
2021/05/27 01:47:55;;;;;;;13.75;10.50;;;;;;;22.33;60.48;99933.39;1837661;76;21095;-69
2021/05/27 01:50:21;;;;;;;12.65;9.85;;;;;;;22.31;60.46;99926.02;1836253;77;21093;-70
2021/05/27 01:52:50;;;;;;;14.20;10.85;;;;;;;22.33;60.48;99934.75;1830239;77;21091;-70
2021/05/27 01:55:17;;;;;;;15.58;9.88;;;;;;;22.32;60.45;99937.96;1837333;77;21079;-69
2021/05/27 01:57:44;;;;;;;13.03;10.48;;;;;;;22.31;60.45;99942.25;1845172;77;21670;-69
2021/05/27 02:00:14;;;;;;;12.03;9.40;;;;;;;22.30;60.37;99942.80;1837346;77;21113;-68
2021/05/27 02:02:42;;;;;;;12.90;9.40;;;;;;;22.29;60.37;99941.17;1837594;77;21034;-68
2021/05/27 02:05:11;;;;;;;12.88;9.30;;;;;;;22.28;60.32;99931.93;1795959;77;21059;-69
2021/05/27 02:07:40;;;;;;;11.78;8.95;;;;;;;22.28;60.32;99934.64;1838869;77;21075;-68
2021/05/27 02:10:08;;;;;;;14.20;9.53;;;;;;;22.26;60.28;99932.16;1810400;77;21079;-68
2021/05/27 02:12:35;;;;;;;10.60;9.05;;;;;;;22.25;60.25;99933.24;1812766;77;21066;-71
2021/05/27 02:15:07;;;;;;;11.88;8.85;;;;;;;22.25;60.19;99929.18;1847772;77;21566;-69
2021/05/27 02:17:34;;;;;;;11.28;8.45;;;;;;;22.23;60.20;99929.08;1842416;77;21055;-69
2021/05/27 02:20:01;;;;;;;10.20;8.65;;;;;;;22.23;60.17;99934.49;1842726;77;21496;-68
2021/05/27 02:22:30;;;;;;;9.90;8.38;;;;;;;22.22;60.12;99933.67;1837046;77;21924;-67
2021/05/27 02:25:11;;;;;;;11.00;8.18;;;;;;;22.22;60.14;99935.57;1764083;78;21079;-69
2021/05/27 02:27:38;;;;;;;8.98;7.72;;;;;;;22.21;60.13;99936.62;1843454;77;20992;-69
2021/05/27 02:30:07;;;;;;;11.33;9.10;;;;;;;22.21;60.09;99936.62;1846688;77;21641;-68
2021/05/27 02:32:34;;;;;;;9.80;8.65;;;;;;;22.21;60.05;99933.91;1849657;77;21134;-68
2021/05/27 02:35:01;;;;;;;10.18;9.20;;;;;;;22.21;60.05;99935.27;1847879;77;21706;-68
2021/05/27 02:37:28;;;;;;;12.47;8.85;;;;;;;22.21;59.99;99921.73;1831914;77;21079;-69
2021/05/27 02:39:56;;;;;;;11.38;9.10;;;;;;;22.21;59.94;99923.91;1839841;77;22133;-68
2021/05/27 02:42:23;;;;;;;9.93;8.85;;;;;;;22.21;59.92;99922.55;1847186;77;21103;-69
2021/05/27 02:44:51;;;;;;;9.20;8.30;;;;;;;22.19;59.88;99920.11;1847494;77;21000;-70
2021/05/27 02:47:19;;;;;;;11.97;9.20;;;;;;;22.22;59.80;99916.63;1831131;77;21085;-70
2021/05/27 02:49:47;;;;;;;10.32;8.78;;;;;;;22.22;59.77;99914.73;1835604;77;21534;-69
2021/05/27 02:52:14;;;;;;;11.55;8.50;;;;;;;22.22;59.72;99909.87;1834481;77;21044;-69
2021/05/27 02:54:41;;;;;;;11.08;8.10;;;;;;;22.23;59.70;99908.78;1835565;77;21152;-69
2021/05/27 02:57:08;;;;;;;10.38;8.50;;;;;;;22.24;59.65;99906.39;1825494;77;21091;-69
2021/05/27 02:59:35;;;;;;;11.15;9.13;;;;;;;22.25;59.59;99905.34;1824372;77;21669;-67
2021/05/27 03:02:04;;;;;;;9.08;8.20;;;;;;;22.25;59.56;99906.18;1844638;77;21107;-67
2021/05/27 03:04:32;;;;;;;9.30;8.35;;;;;;;22.26;59.54;99908.35;1835715;77;21039;-68
2021/05/27 03:07:00;;;;;;;12.45;8.28;;;;;;;22.26;59.54;99911.05;1833113;77;21047;-68
2021/05/27 03:09:27;;;;;;;9.60;8.53;;;;;;;22.26;59.57;99908.35;1831887;77;21119;-68
2021/05/27 03:11:54;;;;;;;8.70;7.72;;;;;;;22.26;59.60;99911.87;1835165;77;21164;-67
2021/05/27 03:14:22;;;;;;;9.63;8.53;;;;;;;22.26;59.64;99911.87;1834854;77;21057;-69
2021/05/27 03:16:56;;;;;;;10.82;9.08;;;;;;;22.27;59.62;99910.82;1841271;77;21000;-67
2021/05/27 03:19:24;;;;;;;8.43;7.58;;;;;;;22.28;59.62;99911.63;1830912;77;21055;-68
2021/05/27 03:21:50;;;;;;;9.35;8.30;;;;;;;22.28;59.63;99902.16;1833943;77;21614;-67
2021/05/27 03:24:18;;;;;;;9.88;7.92;;;;;;;22.29;59.62;99901.08;1835224;77;21069;-69
2021/05/27 03:26:46;;;;;;;9.30;7.37;;;;;;;22.30;59.67;99900.03;1831998;77;21579;-67
2021/05/27 03:29:13;;;;;;;9.68;7.60;;;;;;;22.31;59.70;99896.25;1820857;77;21027;-68
2021/05/27 03:31:40;;;;;;;8.68;7.87;;;;;;;22.33;59.68;99901.73;1840782;77;21067;-68
2021/05/27 03:34:08;;;;;;;10.40;8.23;;;;;;;22.35;59.70;99898.78;1838781;77;21048;-67
2021/05/27 03:36:34;;;;;;;10.50;7.75;;;;;;;22.37;59.68;99902.08;1839113;77;21074;-68
2021/05/27 03:39:07;;;;;;;11.70;8.98;;;;;;;22.39;59.71;99904.00;1832377;77;21099;-68
2021/05/27 03:41:33;;;;;;;10.60;8.25;;;;;;;22.42;59.70;99906.21;1833095;77;21118;-70
2021/05/27 03:44:03;;;;;;;10.00;8.35;;;;;;;22.44;59.68;99910.84;1831440;77;21578;-69
2021/05/27 03:46:32;;;;;;;9.63;8.65;;;;;;;22.45;59.68;99909.80;1838505;77;21102;-68
2021/05/27 03:48:58;;;;;;;10.30;9.23;;;;;;;22.48;59.66;99903.06;1837312;77;21046;-67
2021/05/27 03:51:25;;;;;;;10.35;8.00;;;;;;;22.50;59.65;99903.13;1832403;77;21243;-68
2021/05/27 03:53:52;;;;;;;9.78;8.38;;;;;;;22.52;59.62;99895.59;1826550;77;21079;-67
2021/05/27 03:56:20;;;;;;;9.85;8.85;;;;;;;22.56;59.58;99900.80;1765368;80;21155;-69
2021/05/27 04:01:36;;;;;;;9.88;8.45;;;;;;;22.61;59.54;99898.70;1753796;80;21112;-68
2021/05/27 04:07:11;;;;;;;9.75;8.38;;;;;;;22.65;59.54;99900.40;1799894;79;21052;-69
2021/05/27 04:09:38;;;;;;;9.25;7.95;;;;;;;22.65;59.55;99894.44;1797507;79;21104;-69
2021/05/27 04:17:39;;;;;;;10.18;8.05;;;;;;;22.76;59.59;99902.22;1834241;77;21068;-69
2021/05/27 04:20:08;;;;;;;14.30;9.00;;;;;;;22.79;59.64;99904.42;1833673;77;21079;-69
2021/05/27 04:22:36;;;;;;;10.63;8.00;;;;;;;22.83;59.62;99904.77;1839754;77;21051;-68
2021/05/27 04:25:04;;;;;;;11.48;8.40;;;;;;;22.86;59.65;99895.61;1841006;77;21048;-70
2021/05/27 04:27:30;;;;;;;8.85;7.95;;;;;;;22.90;59.66;99891.89;1834114;77;21070;-69
2021/05/27 04:30:12;;;;;;;9.93;8.00;;;;;;;22.96;59.65;99890.90;1842071;77;21016;-68
2021/05/27 04:35:10;;;;;;;11.85;8.73;;;;;;;23.07;59.61;99900.05;1756776;79;21122;-68
2021/05/27 04:37:37;;;;;;;13.30;8.55;;;;;;;23.10;59.55;99899.55;1760008;80;21055;-68
2021/05/27 04:40:05;;;;;;;9.90;8.38;;;;;;;23.14;59.51;99895.27;1767092;80;21084;-69
2021/05/27 04:42:31;;;;;;;12.03;9.33;;;;;;;23.21;59.42;99896.47;1722886;80;22135;-68
2021/05/27 04:44:57;;;;;;;10.50;8.05;;;;;;;23.26;59.34;99900.63;1798109;79;21060;-70
2021/05/27 04:47:24;;;;;;;9.93;8.48;;;;;;;23.32;59.22;99903.69;1780574;79;21137;-67
2021/05/27 04:49:50;;;;;;;10.68;8.75;;;;;;;23.35;59.10;99898.59;1841255;77;21028;-68
2021/05/27 04:52:18;;;;;;;11.57;9.05;;;;;;;23.40;59.01;99894.31;1853157;77;21559;-69
2021/05/27 04:54:45;;;;;;;9.78;8.68;;;;;;;23.44;58.97;99894.10;1849831;77;21028;-70
2021/05/27 04:57:11;;;;;;;11.00;9.05;;;;;;;23.48;58.87;99893.88;1837802;77;21035;-68
2021/05/27 04:59:38;;;;;;;11.48;8.98;;;;;;;23.51;58.83;99898.82;1839849;77;21558;-69
2021/05/27 05:02:05;;;;;;;11.75;8.70;;;;;;;23.54;58.75;99899.66;1848092;77;21566;-70
2021/05/27 05:04:32;;;;;;;10.98;8.95;;;;;;;23.57;58.64;99895.64;1844028;77;21107;-69
2021/05/27 05:06:58;;;;;;;12.50;8.70;;;;;;;23.59;58.60;99892.96;1851600;77;21094;-69
2021/05/27 05:09:24;;;;;;;10.85;9.75;;;;;;;23.63;58.54;99886.50;1842674;76;21051;-69
2021/05/27 05:11:51;;;;;;;11.70;10.28;;;;;;;23.67;58.47;99894.42;1838080;77;21613;-70
2021/05/27 05:14:19;;;;;;;14.03;9.60;;;;;;;23.70;58.45;99893.91;1838126;77;21055;-69
2021/05/27 05:16:46;;;;;;;11.97;9.30;;;;;;;23.73;58.39;99897.48;1838629;77;21102;-70
2021/05/27 05:19:12;;;;;;;10.85;9.83;;;;;;;23.77;58.39;99893.73;1845737;77;21102;-70
2021/05/27 05:21:39;;;;;;;13.60;10.70;;;;;;;23.80;58.31;99886.46;1836177;77;21051;-70
2021/05/27 05:24:09;;;;;;;10.88;9.75;;;;;;;23.83;58.28;99889.50;1846878;77;21678;-70
2021/05/27 05:26:35;;;;;;;11.55;10.40;;;;;;;23.86;58.25;99882.77;1837273;77;21078;-69
2021/05/27 05:29:03;;;;;;;10.55;9.43;;;;;;;23.88;58.24;99884.69;1848930;77;21149;-71
2021/05/27 05:31:31;;;;;;;11.38;9.55;;;;;;;23.90;58.22;99883.89;1849185;77;21661;-71
2021/05/27 05:33:58;;;;;;;12.68;10.53;;;;;;;23.93;58.20;99882.86;1835296;77;21024;-70
2021/05/27 05:36:24;;;;;;;10.93;9.93;;;;;;;23.97;58.18;99886.41;1846118;77;21071;-71
2021/05/27 05:38:51;;;;;;;9.43;8.50;;;;;;;24.01;58.15;99888.38;1839963;77;21657;-70
2021/05/27 05:41:18;;;;;;;10.98;9.85;;;;;;;24.03;58.08;99879.96;1841833;77;21099;-70
2021/05/27 05:43:44;;;;;;;11.93;9.85;;;;;;;24.06;58.05;99873.49;1815260;77;21023;-70
2021/05/27 05:46:10;;;;;;;11.03;9.78;;;;;;;24.09;58.00;99872.19;1839241;77;21126;-70
2021/05/27 05:48:37;;;;;;;15.40;9.93;;;;;;;24.12;57.99;99879.80;1830634;77;21087;-70
2021/05/27 05:51:07;;;;;;;11.63;9.40;;;;;;;24.13;57.95;99872.77;1839218;77;21035;-71
2021/05/27 05:53:33;;;;;;;11.53;10.18;;;;;;;24.17;57.86;99869.55;1842476;77;21126;-69
2021/05/27 05:56:01;;;;;;;11.93;9.05;;;;;;;24.21;57.79;99871.49;1830028;77;21031;-71
2021/05/27 05:58:27;;;;;;;10.88;8.58;;;;;;;24.24;57.68;99870.16;1827024;77;21494;-70
2021/05/27 06:00:54;;;;;;;10.03;8.73;;;;;;;24.26;57.62;99870.20;1837216;77;21094;-70
2021/05/27 06:03:21;;;;;;;13.25;9.60;;;;;;;24.28;57.55;99862.63;1826384;77;21586;-71
2021/05/27 06:06:02;;;;;;;12.68;8.90;;;;;;;24.31;57.49;99866.16;1837691;77;21679;-69
2021/05/27 06:08:49;;;;;;;10.80;8.85;;;;;;;24.33;57.45;99870.80;1839142;77;21035;-70
2021/05/27 06:11:15;;;;;;;9.80;8.60;;;;;;;24.35;57.36;99866.47;1838466;77;21012;-70
2021/05/27 06:13:42;;;;;;;9.45;8.60;;;;;;;24.38;57.28;99862.42;1843286;77;21078;-69
2021/05/27 06:16:08;;;;;;;10.88;8.63;;;;;;;24.41;57.21;99867.34;1845414;77;21055;-70
2021/05/27 06:18:35;;;;;;;12.60;8.60;;;;;;;24.43;57.15;99872.80;1839175;77;21092;-71
2021/05/27 06:21:06;;;;;;;10.15;9.15;;;;;;;24.45;57.05;99869.28;1826619;77;21094;-69
2021/05/27 06:23:36;;;;;;;8.68;7.87;;;;;;;24.48;56.95;99874.75;1830015;77;21568;-70
2021/05/27 06:26:03;;;;;;;13.43;9.48;;;;;;;24.50;56.86;99869.88;1796634;79;21128;-69
2021/05/27 06:28:29;;;;;;;9.20;8.35;;;;;;;24.52;56.78;99871.84;1764613;80;21072;-68
2021/05/27 06:30:56;;;;;;;10.08;8.50;;;;;;;24.53;56.71;99877.02;1758429;80;21080;-66
2021/05/27 06:33:24;;;;;;;8.53;7.62;;;;;;;24.54;56.68;99879.19;1772766;80;21096;-67
2021/05/27 06:35:51;;;;;;;11.18;7.05;;;;;;;24.56;56.47;99866.17;1760656;80;21579;-67
2021/05/27 06:38:17;;;;;;;7.30;6.53;;;;;;;24.58;56.23;99868.09;1758646;80;21081;-67
2021/05/27 06:40:44;;;;;;;8.48;6.65;;;;;;;24.62;55.81;99867.03;1765976;80;21056;-66
2021/05/27 06:43:10;;;;;;;10.45;7.92;;;;;;;24.63;55.56;99875.48;1759964;80;21132;-68
2021/05/27 06:45:37;;;;;;;10.05;7.12;;;;;;;24.65;56.70;99881.47;1764968;80;21064;-68
2021/05/27 06:48:06;;;;;;;9.60;6.33;;;;;;;24.68;57.23;99880.39;1759704;80;21111;-69
2021/05/27 06:50:33;;;;;;;12.40;8.33;;;;;;;24.71;56.80;99874.45;1761706;80;21100;-70
2021/05/27 06:53:03;;;;;;;19.32;10.18;;;;;;;24.74;57.34;99881.26;1831001;77;21024;-69
2021/05/27 06:55:29;;;;;;;18.15;9.98;;;;;;;24.78;57.93;99878.84;1834238;77;22204;-67
2021/05/27 06:57:55;;;;;;;13.08;8.23;;;;;;;24.82;58.53;99877.25;1828188;77;21543;-68
2021/05/27 07:00:23;;;;;;;9.05;7.75;;;;;;;24.86;58.68;99875.64;1833685;77;21059;-69
2021/05/27 07:02:51;;;;;;;11.10;7.85;;;;;;;24.91;58.50;99875.70;1831859;77;21092;-69
2021/05/27 07:05:19;;;;;;;7.25;6.55;;;;;;;24.96;58.28;99877.66;1842986;77;21098;-69
2021/05/27 07:07:46;;;;;;;7.45;6.67;;;;;;;25.01;57.88;99869.52;1845834;77;21044;-70
2021/05/27 07:10:17;;;;;;;10.40;6.90;;;;;;;25.06;57.33;99871.73;1844986;77;21539;-68
2021/05/27 07:12:53;;;;;;;11.43;6.55;;;;;;;25.11;57.03;99862.79;1831070;77;21549;-68
2021/05/27 07:15:22;;;;;;;8.65;6.25;;;;;;;25.16;56.63;99870.98;1836863;77;21558;-70
2021/05/27 07:17:52;;;;;;;7.65;6.60;;;;;;;25.21;56.15;99875.66;1837545;77;21063;-71
2021/05/27 07:20:19;;;;;;;8.20;6.45;;;;;;;25.23;55.55;99866.19;1827671;76;23081;-69
2021/05/27 07:22:46;;;;;;;9.85;6.08;;;;;;;25.26;55.01;99869.72;1833140;77;21056;-69
2021/05/27 07:25:14;;;;;;;8.23;6.05;;;;;;;25.30;55.05;99863.22;1821490;77;21069;-67
2021/05/27 07:27:42;;;;;;;9.63;6.45;;;;;;;25.34;54.67;99858.89;1820866;77;21123;-74
2021/05/27 07:30:11;;;;;;;7.87;6.12;;;;;;;25.38;54.40;99860.55;1823990;77;21095;-70
2021/05/27 07:32:37;;;;;;;8.10;6.05;;;;;;;25.41;54.22;99858.13;1833113;77;21574;-72
2021/05/27 07:35:06;;;;;;;7.08;6.30;;;;;;;25.47;54.00;99869.85;1840472;77;21067;-71
2021/05/27 07:37:33;;;;;;;6.72;6.00;;;;;;;25.51;53.67;99864.16;1841156;77;21055;-70
2021/05/27 07:40:00;;;;;;;7.50;5.97;;;;;;;25.55;53.23;99863.09;1817894;77;21047;-70
2021/05/27 07:42:26;;;;;;;6.30;5.70;;;;;;;25.58;53.18;99855.23;1824696;77;21004;-70
2021/05/27 07:44:53;;;;;;;7.90;6.08;;;;;;;25.62;53.21;99841.92;1815461;77;21584;-71
2021/05/27 07:47:19;;;;;;;6.40;5.53;;;;;;;25.67;52.91;99833.76;1821291;77;21093;-70
2021/05/27 07:49:46;;;;;;;8.23;6.08;;;;;;;25.72;52.65;99837.88;1842240;77;21063;-70
2021/05/27 07:52:13;;;;;;;6.42;5.83;;;;;;;25.78;52.50;99845.52;1840397;77;21535;-68
2021/05/27 07:54:39;;;;;;;6.95;6.17;;;;;;;25.82;52.33;99835.73;1831851;77;21521;-71
2021/05/27 07:57:05;;;;;;;7.42;5.80;;;;;;;25.87;52.36;99831.67;1824432;77;21813;-70
2021/05/27 07:59:32;;;;;;;6.00;5.30;;;;;;;25.90;52.21;99820.23;1829875;77;21065;-72
2021/05/27 08:01:59;;;;;;;8.40;5.60;;;;;;;25.95;52.13;99835.81;1841183;76;21020;-75
2021/05/27 08:04:25;;;;;;;9.08;6.37;;;;;;;25.98;51.54;99831.17;1832796;77;21725;-74
2021/05/27 08:06:52;;;;;;;6.58;5.75;;;;;;;25.99;51.06;99830.91;1814828;77;21072;-70
2021/05/27 08:09:19;;;;;;;6.22;5.62;;;;;;;26.02;51.10;99841.80;1830421;77;21085;-68
2021/05/27 08:11:45;;;;;;;6.67;5.47;;;;;;;26.02;50.70;99831.75;1830390;77;21126;-69
2021/05/27 08:14:12;;;;;;;5.87;5.37;;;;;;;26.03;50.59;99827.12;1835658;77;22216;-67
2021/05/27 08:16:40;;;;;;;6.53;5.87;;;;;;;26.03;50.59;99826.56;1826623;77;21075;-70
2021/05/27 08:19:08;;;;;;;6.33;5.72;;;;;;;26.05;50.41;99817.59;1838257;77;21051;-71
2021/05/27 08:21:36;;;;;;;5.60;5.10;;;;;;;26.06;50.34;99812.44;1815278;77;21015;-73
2021/05/27 08:24:05;;;;;;;6.20;5.62;;;;;;;26.08;50.35;99802.64;1836854;77;21605;-75
2021/05/27 08:26:32;;;;;;;7.65;5.83;;;;;;;26.11;50.36;99810.80;1824639;77;21046;-73
2021/05/27 08:28:59;;;;;;;7.40;6.12;;;;;;;26.13;49.93;99811.35;1831334;77;21142;-71
2021/05/27 08:31:26;;;;;;;8.03;5.47;;;;;;;26.13;50.04;99809.44;1836693;77;21130;-68
2021/05/27 08:33:53;;;;;;;6.17;5.58;;;;;;;26.15;49.94;99808.63;1821295;77;21052;-69
2021/05/27 08:36:22;;;;;;;6.15;5.50;;;;;;;26.16;50.03;99808.10;1831194;77;21209;-67
2021/05/27 08:38:48;;;;;;;6.37;5.45;;;;;;;26.17;50.08;99809.17;1832534;77;21607;-69
2021/05/27 08:41:18;;;;;;;5.70;5.15;;;;;;;26.17;49.91;99802.36;1822433;77;21154;-68
2021/05/27 08:43:48;;;;;;;6.03;5.10;;;;;;;26.19;49.97;99804.30;1829005;77;21031;-69
2021/05/27 08:46:16;;;;;;;5.20;4.70;;;;;;;26.21;49.85;99810.81;1838905;77;21812;-67
2021/05/27 08:48:43;;;;;;;5.87;5.40;;;;;;;26.22;49.82;99811.91;1826250;77;21073;-65
2021/05/27 08:51:12;;;;;;;6.30;5.37;;;;;;;26.23;50.01;99804.55;1817599;78;21091;-68
2021/05/27 08:53:39;;;;;;;6.00;5.40;;;;;;;26.25;50.00;99803.73;1817167;78;21313;-68
2021/05/27 08:56:06;;;;;;;6.10;5.58;;;;;;;26.27;50.38;99800.23;1818934;78;21077;-67
2021/05/27 08:58:32;;;;;;;6.60;6.00;;;;;;;26.29;50.56;99806.22;1821419;78;21075;-67
2021/05/27 09:03:00;;;;;;;7.17;6.47;;;;;;;26.36;50.69;99809.47;1815155;76;22644;-66
2021/05/27 09:05:33;;;;;;;6.37;5.70;;;;;;;26.27;50.70;99813.29;1797226;78;20986;-68
2021/05/27 09:08:00;;;;;;;7.55;6.53;;;;;;;26.29;50.96;99818.47;1775496;77;21142;-70
2021/05/27 09:10:48;;;;;;;7.28;6.67;;;;;;;26.30;51.01;99817.37;1780753;79;20964;-67
2021/05/27 09:13:18;;;;;;;6.58;5.97;;;;;;;26.30;50.79;99824.17;1779894;79;20944;-68
2021/05/27 09:15:46;;;;;;;7.00;6.22;;;;;;;26.28;50.94;99826.35;1775280;79;20947;-70
2021/05/27 09:18:13;;;;;;;7.62;6.75;;;;;;;26.26;50.78;99825.25;1788509;78;21622;-71
2021/05/27 09:20:40;;;;;;;7.85;7.10;;;;;;;26.25;50.50;99824.16;1796790;78;21490;-68
2021/05/27 09:23:15;;;;;;;8.60;6.97;;;;;;;26.22;50.41;99826.08;1776782;77;21046;-66
2021/05/27 09:25:48;;;;;;;7.42;6.55;;;;;;;26.19;50.47;99822.52;1804765;78;20994;-68
2021/05/27 09:28:23;;;;;;;6.83;6.22;;;;;;;26.14;50.37;99821.98;1792609;79;21157;-66
2021/05/27 09:30:55;;;;;;;8.25;6.58;;;;;;;26.12;50.39;99813.81;1773033;79;21240;-69
2021/05/27 09:33:38;;;;;;;7.87;6.37;;;;;;;26.07;50.48;99818.69;1795155;78;21073;-70
2021/05/27 09:36:12;;;;;;;6.87;6.17;;;;;;;26.04;50.32;99809.72;1780495;77;21102;-70
2021/05/27 09:38:41;;;;;;;6.60;5.97;;;;;;;25.98;50.46;99812.13;1780502;78;21068;-68
2021/05/27 09:41:22;;;;;;;6.97;6.28;;;;;;;25.95;50.64;99811.31;1787126;77;21098;-71
2021/05/27 09:43:53;;;;;;;7.50;6.62;;;;;;;25.92;50.75;99808.57;1793294;78;21027;-71
2021/05/27 09:46:21;;;;;;;6.60;6.00;;;;;;;25.90;50.84;99804.75;1794877;78;21113;-69
2021/05/27 09:48:47;;;;;;;7.70;6.90;;;;;;;25.89;50.88;99803.10;1813371;78;21688;-69
2021/05/27 09:51:28;;;;;;;6.97;6.28;;;;;;;25.89;50.91;99803.65;1740744;79;21111;-69
2021/05/27 09:53:56;;;;;;;6.62;6.08;;;;;;;25.88;50.90;99804.20;1794825;77;21110;-69
2021/05/27 09:56:41;;;;;;;6.80;6.08;;;;;;;25.88;50.91;99805.56;1804326;78;21093;-70
2021/05/27 09:59:13;;;;;;;7.67;6.55;;;;;;;25.89;50.87;99807.73;1793250;77;21097;-69
2021/05/27 10:01:40;;;;;;;6.75;6.22;;;;;;;25.92;50.89;99805.05;1781300;77;21086;-68
2021/05/27 10:04:16;;;;;;;8.40;5.67;;;;;;;25.94;50.97;99808.31;1782135;78;21030;-68
2021/05/27 10:06:43;;;;;;;5.92;5.22;;;;;;;25.98;51.15;99802.08;1767072;77;21533;-69
2021/05/27 10:09:11;;;;;;;6.50;5.90;;;;;;;26.03;51.43;99799.91;1779780;79;21078;-67
2021/05/27 10:11:39;;;;;;;6.28;5.35;;;;;;;26.06;51.54;99808.35;1770327;79;21071;-70
2021/05/27 10:14:07;;;;;;;6.65;5.83;;;;;;;26.09;51.43;99796.91;1781407;78;21089;-72
2021/05/27 10:16:37;;;;;;;6.35;5.75;;;;;;;26.13;51.28;99793.66;1778261;79;21034;-70
2021/05/27 10:19:06;;;;;;;6.05;5.53;;;;;;;26.14;51.15;99804.28;1781246;79;21257;-72
2021/05/27 10:21:33;;;;;;;6.22;5.62;;;;;;;26.15;51.08;99798.28;1779182;79;21074;-69
2021/05/27 10:24:03;;;;;;;6.62;5.97;;;;;;;26.14;51.10;99799.39;1781632;78;21133;-74
2021/05/27 10:26:30;;;;;;;9.33;6.10;;;;;;;26.15;51.48;99796.92;1771742;79;21102;-66
2021/05/27 10:29:00;;;;;;;7.33;6.30;;;;;;;26.18;51.83;99793.67;1772134;78;21543;-74
2021/05/27 10:31:26;;;;;;;6.03;5.53;;;;;;;26.20;51.89;99791.50;1767003;79;21079;-72
2021/05/27 10:33:52;;;;;;;6.53;6.00;;;;;;;26.22;51.97;99791.48;1788998;78;21645;-80
2021/05/27 10:36:20;;;;;;;8.25;6.33;;;;;;;26.23;51.81;99790.41;1773785;79;21028;-79
2021/05/27 10:38:51;;;;;;;7.33;6.58;;;;;;;26.25;51.72;99794.20;1761455;79;21106;-75
2021/05/27 10:41:35;;;;;;;8.03;6.22;;;;;;;26.26;51.67;99787.69;1772498;79;21086;-74
2021/05/27 10:44:07;;;;;;;7.22;6.55;;;;;;;26.26;51.68;99787.69;1733352;80;21141;-76
2021/05/27 10:46:49;;;;;;;16.85;11.43;;;;;;;26.25;51.63;99788.23;1749524;81;21058;-76
2021/05/27 10:49:45;;;;;;;20.95;11.00;;;;;;;26.24;51.70;99783.87;1728392;81;26455;-72
2021/05/27 10:52:33;;;;;;;12.13;8.83;;;;;;;26.24;52.18;99788.50;1701059;81;21090;-75
2021/05/27 10:55:03;;;;;;;10.28;8.35;;;;;;;26.21;52.53;99780.86;1750196;81;21072;-74
2021/05/27 10:57:46;;;;;;;9.73;8.05;;;;;;;26.18;53.11;99777.34;1776547;78;21063;-79
2021/05/27 11:00:21;;;;;;;10.55;7.50;;;;;;;26.18;53.53;99777.34;1794837;78;21083;-82
2021/05/27 11:02:48;;;;;;;8.50;7.58;;;;;;;26.16;53.50;99773.52;1774428;78;21589;-73
2021/05/27 11:05:16;;;;;;;7.80;7.03;;;;;;;26.15;53.29;99779.23;1778771;79;21095;-74
2021/05/27 11:08:20;;;;;;;8.05;6.85;;;;;;;26.13;53.18;99771.87;1774665;78;21038;-73
2021/05/27 11:10:46;;;;;;;11.57;7.37;;;;;;;26.11;53.27;99772.69;1776108;78;21034;-73
2021/05/27 11:13:13;;;;;;;10.32;7.72;;;;;;;26.07;53.24;99780.02;1790421;78;21079;-76
2021/05/27 11:16:06;;;;;;;11.03;7.37;;;;;;;26.05;53.28;99777.31;1777549;78;21899;-68
2021/05/27 11:18:37;;;;;;;9.60;7.30;;;;;;;26.05;53.18;99789.56;1787825;79;21567;-69
2021/05/27 11:21:42;;;;;;;8.40;7.65;;;;;;;26.01;53.03;99797.99;1777251;78;21082;-68
2021/05/27 11:24:34;;;;;;;8.50;7.70;;;;;;;25.97;53.03;99806.42;1781759;79;21604;-69
2021/05/27 11:26:38;;;;;;;9.33;7.03;;;;;;;25.90;53.39;99828.41;1774306;79;21043;-68
2021/05/27 11:29:11;;;;;;;8.80;7.97;;;;;;;25.81;53.80;99818.59;1791245;79;21652;-69
2021/05/27 11:31:45;;;;;;;9.48;6.55;;;;;;;25.76;54.27;99821.84;1770812;78;21059;-72
2021/05/27 11:34:12;;;;;;;8.28;7.47;;;;;;;25.69;54.77;99825.63;1783915;79;21086;-71
2021/05/27 11:36:39;;;;;;;8.53;7.08;;;;;;;25.60;55.25;99825.86;1785142;79;21075;-71
2021/05/27 11:39:06;;;;;;;8.63;7.75;;;;;;;25.54;55.72;99822.84;1783104;78;22229;-68
2021/05/27 11:41:33;;;;;;;10.25;7.78;;;;;;;25.48;56.12;99818.47;1783244;79;21075;-69
2021/05/27 11:44:01;;;;;;;8.43;7.28;;;;;;;25.42;56.44;99824.42;1787045;78;21047;-69
2021/05/27 11:46:30;;;;;;;9.90;7.72;;;;;;;25.37;56.82;99824.39;1786068;79;21594;-67
2021/05/27 11:48:57;;;;;;;8.90;7.50;;;;;;;25.33;57.18;99823.83;1787307;79;21682;-70
2021/05/27 11:51:29;;;;;;;10.45;7.97;;;;;;;25.27;57.54;99803.41;1763469;79;21059;-70
2021/05/27 11:54:02;;;;;;;8.68;7.78;;;;;;;25.24;57.82;99809.36;1790258;78;21618;-70
2021/05/27 11:56:46;;;;;;;;;;;;;;;25.20;58.02;99812.30;1763756;79;21661;-68